Time;durP1;ratioP1;P1;durP2;ratioP2;P2;SDS_P1;SDS_P2;PMS_P1;PMS_P2;Temp;Humidity;BMP_temperature;BMP_pressure;BME280_temperature;BME280_humidity;BME280_pressure;Samples;Min_cycle;Max_cycle;Signal;HPM_P1;HPM_P2
2021/08/04 14:06:49;;;;;;;0.00;0.00;;;;;;;27.22;38.99;100057.41;5091084;28;20389;-53
2021/08/04 14:09:16;;;;;;;0.00;0.00;;;;;;;27.43;38.48;100047.41;5077712;28;20062;-56
2021/08/04 14:11:42;;;;;;;0.00;0.00;;;;;;;27.57;37.32;100050.69;5060241;28;20100;-55
2021/08/04 14:14:09;;;;;;;0.00;0.00;;;;;;;27.47;36.25;100030.69;5061229;28;20044;-56
2021/08/04 14:16:35;;;;;;;0.00;0.00;;;;;;;27.56;36.96;100032.63;5079894;28;20098;-57
2021/08/04 14:19:01;;;;;;;0.00;0.00;;;;;;;27.75;37.11;100056.44;5059526;28;20044;-62
2021/08/04 14:21:27;;;;;;;0.00;0.00;;;;;;;27.65;37.27;100058.22;5060044;28;20063;-52
2021/08/04 14:23:55;;;;;;;0.00;0.00;;;;;;;27.64;36.37;100051.06;5078178;28;20048;-54
2021/08/04 14:26:22;;;;;;;0.00;0.00;;;;;;;27.67;35.50;100051.66;5061683;28;20066;-54
2021/08/04 14:28:48;;;;;;;0.00;0.00;;;;;;;27.74;36.15;100047.41;5074054;28;20040;-54
2021/08/04 14:31:14;;;;;;;0.00;0.00;;;;;;;27.75;36.08;100035.50;5074254;28;20524;-51
2021/08/04 14:33:41;;;;;;;0.00;0.00;;;;;;;27.72;36.00;100041.22;5060892;28;20046;-58
2021/08/04 14:36:07;;;;;;;0.00;0.00;;;;;;;27.69;36.00;100043.34;5060776;28;20138;-64
2021/08/04 14:38:33;;;;;;;0.00;0.00;;;;;;;27.55;36.30;100046.38;5076692;28;20182;-55
2021/08/04 14:40:59;;;;;;;0.00;0.00;;;;;;;27.62;36.07;100043.00;5056799;28;20534;-56
2021/08/04 14:43:25;;;;;;;0.00;0.00;;;;;;;27.84;34.90;100050.25;5061229;28;20526;-57
2021/08/04 14:45:51;;;;;;;0.00;0.00;;;;;;;27.50;33.96;100041.34;5077110;28;20155;-55
2021/08/04 14:48:18;;;;;;;0.00;0.00;;;;;;;27.44;34.01;100035.50;5077984;28;20123;-49
2021/08/04 14:50:43;;;;;;;0.00;0.00;;;;;;;26.79;33.80;100041.00;5060451;28;20471;-52
2021/08/04 14:53:09;;;;;;;0.00;0.00;;;;;;;26.64;33.72;100038.66;5078997;28;20039;-60
2021/08/04 14:55:37;;;;;;;0.00;0.00;;;;;;;26.44;33.83;100037.53;5077826;28;20048;-52
2021/08/04 14:58:03;;;;;;;0.00;0.00;;;;;;;26.16;33.43;100015.38;5027856;28;20044;-56
2021/08/04 15:00:29;;;;;;;0.00;0.00;;;;;;;26.11;34.24;100032.06;5078813;28;20040;-56
2021/08/04 15:02:55;;;;;;;0.10;0.00;;;;;;;25.88;35.55;100038.41;5041484;28;20047;-58
2021/08/04 15:05:23;;;;;;;0.00;0.00;;;;;;;25.75;36.57;100041.22;5055735;28;20169;-56
2021/08/04 15:07:49;;;;;;;0.00;0.00;;;;;;;25.66;37.81;100025.63;5057058;28;20326;-63
2021/08/04 15:10:15;;;;;;;0.00;0.00;;;;;;;25.79;39.93;100047.28;5078400;28;20048;-66
2021/08/04 15:12:41;;;;;;;0.00;0.00;;;;;;;25.72;40.95;100046.88;5054483;28;20056;-66
2021/08/04 15:15:07;;;;;;;0.00;0.00;;;;;;;25.72;40.78;100048.75;5079805;28;20048;-68
2021/08/04 15:17:35;;;;;;;0.00;0.00;;;;;;;25.37;40.42;100042.44;5034945;28;20487;-68
2021/08/04 15:20:01;;;;;;;0.00;0.00;;;;;;;25.33;41.92;100049.97;5043723;28;20189;-72
2021/08/04 15:22:30;;;;;;;0.20;0.00;;;;;;;24.97;40.66;100036.38;5031137;28;20048;-58
2021/08/04 15:24:56;;;;;;;0.00;0.00;;;;;;;24.36;41.69;100049.97;5047019;28;20036;-67
2021/08/04 15:27:24;;;;;;;0.00;0.00;;;;;;;24.50;41.19;100059.81;5031059;28;20040;-63
2021/08/04 15:29:50;;;;;;;0.00;0.00;;;;;;;24.25;40.95;100063.41;5044437;28;20056;-62
2021/08/04 15:32:16;;;;;;;0.00;0.00;;;;;;;24.08;41.73;100063.75;5046346;28;20056;-61
2021/08/04 15:34:42;;;;;;;0.00;0.00;;;;;;;24.15;42.26;100073.19;5046250;28;20040;-66
2021/08/04 15:37:08;;;;;;;0.00;0.00;;;;;;;24.16;43.27;100080.31;5046487;28;21407;-71
2021/08/04 15:39:34;;;;;;;0.00;0.00;;;;;;;23.83;48.85;100098.03;5043928;28;20842;-70
2021/08/04 15:42:04;;;;;;;0.00;0.00;;;;;;;22.16;58.01;100094.69;5060030;28;20048;-70
2021/08/04 15:44:30;;;;;;;0.00;0.00;;;;;;;21.56;60.35;100110.06;5027909;28;20044;-71
2021/08/04 15:46:56;;;;;;;0.00;0.00;;;;;;;21.01;61.16;100127.69;5012336;28;20039;-67
2021/08/04 15:49:24;;;;;;;0.00;0.00;;;;;;;20.84;62.61;100125.91;5025886;28;20041;-69
2021/08/04 15:51:50;;;;;;;0.00;0.00;;;;;;;20.58;63.00;100128.31;5062172;28;20485;-68
2021/08/04 15:54:16;;;;;;;0.00;0.00;;;;;;;20.40;63.40;100122.09;5010573;28;20140;-64
2021/08/04 15:56:43;;;;;;;0.00;0.00;;;;;;;20.41;65.99;100139.16;5041459;28;20143;-67
2021/08/04 15:59:10;;;;;;;0.00;0.00;;;;;;;20.07;72.38;100134.66;5047312;28;20047;-70
2021/08/04 16:01:36;;;;;;;0.00;0.00;;;;;;;19.82;76.91;100138.69;5027134;28;20076;-68
2021/08/04 16:04:04;;;;;;;0.00;0.00;;;;;;;19.53;82.23;100153.63;5045645;28;20139;-68
2021/08/04 16:06:30;;;;;;;0.00;0.00;;;;;;;19.42;87.61;100172.09;5027916;28;20378;-67
2021/08/04 16:08:57;;;;;;;0.00;0.00;;;;;;;19.35;87.18;100172.50;5070765;28;20412;-65
2021/08/04 16:11:23;;;;;;;0.00;0.00;;;;;;;19.34;79.74;100163.53;5064684;28;20582;-69
2021/08/04 16:13:52;;;;;;;0.00;0.00;;;;;;;19.51;78.40;100181.56;5012711;28;20123;-72
2021/08/04 16:16:19;;;;;;;0.00;0.00;;;;;;;19.75;77.30;100177.63;5030841;28;20051;-69
2021/08/04 16:18:45;;;;;;;0.00;0.00;;;;;;;19.88;75.29;100167.97;5057913;28;20040;-70
2021/08/04 16:21:11;;;;;;;0.00;0.00;;;;;;;19.54;79.63;100157.19;5029197;28;20040;-68
2021/08/04 16:23:37;;;;;;;0.00;0.00;;;;;;;19.35;84.60;100157.25;5014292;28;20078;-66
2021/08/04 16:26:04;;;;;;;0.00;0.00;;;;;;;19.76;86.71;100142.56;5044547;28;20476;-70
2021/08/04 16:28:31;;;;;;;0.00;0.00;;;;;;;19.92;86.79;100124.69;5026303;28;20463;-68
2021/08/04 16:30:57;;;;;;;0.00;0.00;;;;;;;20.07;87.19;100129.25;5030304;28;20052;-68
2021/08/04 16:33:23;;;;;;;0.00;0.00;;;;;;;20.15;85.88;100116.28;5046153;28;20059;-69
2021/08/04 16:35:52;;;;;;;0.00;0.00;;;;;;;20.36;84.96;100120.53;5061459;28;20412;-70
2021/08/04 16:38:17;;;;;;;0.00;0.00;;;;;;;20.41;86.79;100131.06;5029294;28;20063;-67
2021/08/04 16:40:46;;;;;;;0.00;0.00;;;;;;;20.14;85.48;100137.91;5046871;28;20059;-66
2021/08/04 16:43:12;;;;;;;0.00;0.00;;;;;;;20.22;88.34;100138.38;5028733;28;20048;-69
2021/08/04 16:45:41;;;;;;;0.00;0.00;;;;;;;20.29;87.96;100137.09;5025533;28;20075;-69
2021/08/04 16:48:11;;;;;;;0.00;0.00;;;;;;;20.32;88.97;100132.41;5029329;28;20048;-68
2021/08/04 16:50:37;;;;;;;0.00;0.00;;;;;;;20.30;89.60;100111.91;5028307;28;20043;-69
2021/08/04 16:53:04;;;;;;;0.00;0.00;;;;;;;20.49;90.70;100120.72;5062067;28;20098;-63
2021/08/04 16:55:32;;;;;;;0.00;0.00;;;;;;;20.62;91.71;100113.72;5043970;28;20392;-70
2021/08/04 16:58:01;;;;;;;0.00;0.00;;;;;;;20.65;94.37;100116.25;5044114;28;20041;-71
2021/08/04 17:00:28;;;;;;;0.00;0.00;;;;;;;20.49;91.13;100104.56;5029243;28;20063;-71
2021/08/04 17:02:55;;;;;;;0.00;0.00;;;;;;;20.56;89.35;100125.69;5062545;28;20082;-67
2021/08/04 17:05:22;;;;;;;0.00;0.00;;;;;;;20.41;87.58;100110.34;5061123;28;20064;-69
2021/08/04 17:07:49;;;;;;;0.00;0.00;;;;;;;20.40;87.27;100123.91;5030728;28;20068;-69
2021/08/04 17:10:15;;;;;;;0.00;0.00;;;;;;;20.36;86.70;100125.91;5061637;28;20055;-68
2021/08/04 17:12:41;;;;;;;0.00;0.00;;;;;;;20.29;90.69;100137.09;5044387;28;20075;-70
2021/08/04 17:15:08;;;;;;;0.00;0.00;;;;;;;20.19;91.31;100142.09;5042917;28;20055;-69
2021/08/04 17:17:39;;;;;;;0.00;0.00;;;;;;;20.17;91.46;100141.31;5062777;28;20052;-69
2021/08/04 17:20:08;;;;;;;0.00;0.00;;;;;;;19.97;90.03;100140.59;5061306;28;20131;-68
2021/08/04 17:22:34;;;;;;;0.00;0.00;;;;;;;19.77;91.73;100129.97;5044955;28;20047;-68
2021/08/04 17:25:02;;;;;;;0.00;0.00;;;;;;;19.86;90.41;100140.28;5029838;28;20102;-70
2021/08/04 17:27:28;;;;;;;0.03;0.00;;;;;;;19.77;90.20;100130.84;5063122;28;20033;-68
2021/08/04 17:29:54;;;;;;;0.00;0.00;;;;;;;19.81;90.14;100147.69;5044663;28;20037;-69
2021/08/04 17:32:20;;;;;;;0.00;0.00;;;;;;;19.43;94.18;100151.47;5062433;28;20055;-69
2021/08/04 17:34:46;;;;;;;0.00;0.00;;;;;;;19.54;93.81;100162.56;5043022;28;20058;-73
2021/08/04 17:37:12;;;;;;;0.00;0.00;;;;;;;19.53;96.64;100166.19;5044868;28;20048;-68
2021/08/04 17:39:38;;;;;;;0.00;0.00;;;;;;;19.36;94.41;100180.50;5029736;28;20063;-76
2021/08/04 17:42:05;;;;;;;0.00;0.00;;;;;;;19.45;95.57;100169.28;5014041;28;20049;-74
2021/08/04 17:44:31;;;;;;;0.00;0.00;;;;;;;19.30;96.29;100172.72;5042214;28;20360;-74
2021/08/04 17:46:57;;;;;;;0.00;0.00;;;;;;;19.43;96.49;100170.31;5019512;28;20064;-76
2021/08/04 17:49:23;;;;;;;0.00;0.00;;;;;;;19.23;99.07;100155.13;5029897;28;20048;-76
2021/08/04 17:51:49;;;;;;;0.00;0.00;;;;;;;19.10;100.00;100162.03;5029044;28;20090;-74
2021/08/04 17:54:15;;;;;;;0.00;0.00;;;;;;;19.22;100.00;100161.44;5028096;28;20043;-73
2021/08/04 17:57:16;;;;;;;0.00;0.00;;;;;;;19.26;100.00;100167.56;5064975;28;20040;-74
2021/08/04 17:59:59;;;;;;;0.00;0.00;;;;;;;19.30;99.92;100174.53;5043868;28;20551;-74
2021/08/04 18:02:25;;;;;;;0.00;0.00;;;;;;;19.22;100.00;100180.25;5029980;28;20041;-77
2021/08/04 18:04:51;;;;;;;0.00;0.00;;;;;;;19.09;100.00;100180.91;5039990;28;20511;-71
2021/08/04 18:07:17;;;;;;;0.00;0.00;;;;;;;19.01;100.00;100172.34;5023970;28;20117;-76
2021/08/04 18:09:46;;;;;;;0.00;0.00;;;;;;;19.00;100.00;100179.56;5057826;28;20620;-70
2021/08/04 18:12:12;;;;;;;0.00;0.00;;;;;;;19.03;100.00;100176.69;5011083;28;20461;-74
2021/08/04 18:14:40;;;;;;;0.00;0.00;;;;;;;18.96;100.00;100163.63;5054436;28;20059;-71
2021/08/04 18:17:06;;;;;;;0.00;0.00;;;;;;;18.92;100.00;100176.34;5053504;28;20037;-72
2021/08/04 18:19:34;;;;;;;0.00;0.00;;;;;;;18.47;100.00;100121.22;5042321;28;20040;-72
2021/08/04 18:22:00;;;;;;;0.00;0.00;;;;;;;18.70;100.00;100175.59;5054892;28;20488;-65
2021/08/04 18:24:25;;;;;;;0.00;0.00;;;;;;;18.68;100.00;100168.56;5054881;28;20059;-66
2021/08/04 18:26:51;;;;;;;0.00;0.00;;;;;;;18.73;100.00;100170.09;5035334;28;20124;-64
2021/08/04 18:29:17;;;;;;;0.00;0.00;;;;;;;18.72;100.00;100172.84;5033674;28;20037;-67
2021/08/04 18:31:43;;;;;;;0.00;0.00;;;;;;;18.53;100.00;100167.47;5050463;28;20470;-65
2021/08/04 18:34:10;;;;;;;0.00;0.00;;;;;;;18.45;100.00;100171.41;5060968;28;20145;-66
2021/08/04 18:36:37;;;;;;;0.00;0.00;;;;;;;18.30;100.00;100166.72;5016946;28;20186;-70
2021/08/04 18:39:03;;;;;;;0.00;0.00;;;;;;;18.25;100.00;100169.63;5030766;28;20068;-74
2021/08/04 18:41:29;;;;;;;0.00;0.00;;;;;;;18.31;100.00;100163.97;5026376;28;20045;-71
2021/08/04 18:43:55;;;;;;;0.00;0.00;;;;;;;17.94;100.00;100159.38;5027696;28;20048;-67
2021/08/04 18:46:27;;;;;;;0.00;0.00;;;;;;;17.69;100.00;100163.16;5049119;28;20113;-74
2021/08/04 18:48:54;;;;;;;0.00;0.00;;;;;;;17.60;100.00;100156.38;5035796;28;20067;-68
2021/08/04 18:51:20;;;;;;;0.10;0.00;;;;;;;17.69;100.00;100165.84;5035984;28;20507;-68
2021/08/04 18:53:46;;;;;;;0.00;0.00;;;;;;;17.60;100.00;100156.38;5054029;28;20048;-70
2021/08/04 18:56:15;;;;;;;0.00;0.00;;;;;;;17.65;100.00;100156.19;5015310;28;20482;-69
2021/08/04 18:58:41;;;;;;;0.00;0.00;;;;;;;17.48;100.00;100156.88;5039739;28;20051;-71
2021/08/04 19:01:09;;;;;;;0.00;0.00;;;;;;;17.52;100.00;100157.63;5014645;28;20550;-69
2021/08/04 19:03:36;;;;;;;0.00;0.00;;;;;;;17.52;100.00;100171.03;5027798;28;20136;-65
2021/08/04 19:06:08;;;;;;;0.00;0.00;;;;;;;17.53;100.00;100159.38;5064425;28;20123;-67
2021/08/04 19:08:35;;;;;;;0.00;0.00;;;;;;;17.44;100.00;100149.03;5058817;28;20063;-67
2021/08/04 19:11:04;;;;;;;0.00;0.00;;;;;;;17.59;100.00;100172.53;5059867;28;20129;-65
2021/08/04 19:13:32;;;;;;;0.00;0.00;;;;;;;17.73;100.00;100167.47;5059749;28;20068;-67
2021/08/04 19:15:58;;;;;;;0.00;0.00;;;;;;;17.83;100.00;100163.44;5058458;28;20103;-68
2021/08/04 19:18:24;;;;;;;0.00;0.00;;;;;;;17.41;100.00;100163.44;5057273;28;20052;-66
2021/08/04 19:20:50;;;;;;;0.00;0.00;;;;;;;17.45;100.00;100169.56;5060183;28;20036;-68
2021/08/04 19:23:16;;;;;;;0.00;0.00;;;;;;;17.39;100.00;100173.31;5062005;28;20040;-69
2021/08/04 19:25:42;;;;;;;0.00;0.00;;;;;;;17.43;100.00;100158.00;5032265;28;20045;-68
2021/08/04 19:28:08;;;;;;;0.00;0.00;;;;;;;17.49;100.00;100161.31;5056230;28;20052;-69
2021/08/04 19:30:34;;;;;;;0.00;0.00;;;;;;;17.53;100.00;100162.06;5039425;28;20181;-67
2021/08/04 19:33:01;;;;;;;0.00;0.00;;;;;;;17.50;100.00;100159.50;5038550;28;20559;-66
2021/08/04 19:35:27;;;;;;;0.00;0.00;;;;;;;17.66;100.00;100165.97;5045173;28;20044;-67
2021/08/04 19:37:53;;;;;;;0.00;0.00;;;;;;;17.73;100.00;100162.09;5057549;28;20155;-69
2021/08/04 19:40:20;;;;;;;0.00;0.00;;;;;;;17.71;100.00;100156.78;5041474;28;20524;-68
2021/08/04 19:42:47;;;;;;;0.15;0.00;;;;;;;17.84;100.00;100163.38;5029055;28;20064;-68
2021/08/04 19:45:17;;;;;;;0.00;0.00;;;;;;;17.86;100.00;100172.25;5051753;28;20174;-69
2021/08/04 19:47:45;;;;;;;0.00;0.00;;;;;;;17.62;100.00;100159.00;5047860;28;20047;-68
2021/08/04 19:50:14;;;;;;;0.00;0.00;;;;;;;17.76;100.00;100170.88;5025464;28;20075;-68
2021/08/04 19:52:48;;;;;;;0.05;0.00;;;;;;;17.79;100.00;100167.19;5028027;28;20101;-71
2021/08/04 19:55:14;;;;;;;0.00;0.00;;;;;;;17.82;100.00;100159.91;5036351;28;20033;-66
2021/08/04 19:57:41;;;;;;;0.00;0.00;;;;;;;17.85;100.00;100161.56;5039227;28;20135;-67
2021/08/04 20:00:11;;;;;;;0.00;0.00;;;;;;;17.84;100.00;100168.75;5059017;28;20044;-70
2021/08/04 20:02:39;;;;;;;0.00;0.00;;;;;;;17.82;100.00;100167.94;5002532;28;20420;-66
2021/08/04 20:05:08;;;;;;;0.00;0.00;;;;;;;17.79;100.00;100173.44;5021184;28;20144;-71
2021/08/04 20:07:33;;;;;;;0.00;0.00;;;;;;;17.71;100.00;100170.22;5037426;28;20048;-71
2021/08/04 20:10:00;;;;;;;0.00;0.00;;;;;;;17.57;100.00;100163.69;5053578;28;20064;-70
2021/08/04 20:12:27;;;;;;;0.00;0.00;;;;;;;17.55;100.00;100169.09;5054174;28;20394;-65
2021/08/04 20:14:54;;;;;;;0.00;0.00;;;;;;;17.43;100.00;100163.38;5051146;28;20120;-66
2021/08/04 20:17:20;;;;;;;0.00;0.00;;;;;;;17.41;100.00;100166.13;5036841;28;20144;-69
2021/08/04 20:19:47;;;;;;;0.00;0.00;;;;;;;17.42;100.00;100175.03;5041701;28;20046;-72
2021/08/04 20:22:13;;;;;;;0.00;0.00;;;;;;;17.32;100.00;100179.88;5039946;28;20052;-68
2021/08/04 20:24:41;;;;;;;0.00;0.00;;;;;;;17.28;100.00;100172.88;5057549;28;20044;-70
2021/08/04 20:27:08;;;;;;;0.00;0.00;;;;;;;17.25;100.00;100182.88;5052962;28;20044;-70
2021/08/04 20:29:34;;;;;;;0.00;0.00;;;;;;;17.15;100.00;100162.72;5055815;28;20116;-67
2021/08/04 20:32:00;;;;;;;0.00;0.00;;;;;;;17.26;100.00;100182.78;5039864;28;20055;-71
2021/08/04 20:34:28;;;;;;;0.00;0.00;;;;;;;17.13;100.00;100183.38;5052272;28;20091;-68
2021/08/04 20:36:54;;;;;;;0.00;0.00;;;;;;;17.20;100.00;100182.16;5036570;28;20541;-66
2021/08/04 20:39:20;;;;;;;0.00;0.00;;;;;;;17.07;100.00;100183.59;5059109;28;20050;-66
2021/08/04 20:41:49;;;;;;;0.00;0.00;;;;;;;17.04;100.00;100189.06;5056333;28;20049;-67
2021/08/04 20:44:15;;;;;;;1.25;0.00;;;;;;;16.99;100.00;100167.84;5054085;28;20535;-67
2021/08/04 20:46:41;;;;;;;0.00;0.00;;;;;;;16.95;100.00;100173.38;5055916;28;20041;-68
2021/08/04 20:49:07;;;;;;;0.00;0.00;;;;;;;17.02;100.00;100188.28;5057474;28;20051;-71
2021/08/04 20:51:33;;;;;;;0.00;0.00;;;;;;;16.83;100.00;100179.19;5058247;28;20420;-66
2021/08/04 20:53:59;;;;;;;0.00;0.00;;;;;;;16.69;100.00;100182.41;5055611;28;20045;-70
2021/08/04 20:56:25;;;;;;;0.00;0.00;;;;;;;16.71;100.00;100175.19;5054926;28;20052;-66
2021/08/04 20:58:51;;;;;;;0.00;0.00;;;;;;;16.66;100.00;100181.66;5034026;28;20051;-67
2021/08/04 21:01:17;;;;;;;0.00;0.00;;;;;;;16.49;100.00;100157.31;5030790;28;20068;-67
2021/08/04 21:03:47;;;;;;;0.00;0.00;;;;;;;16.63;100.00;100174.63;5030292;28;20044;-68
2021/08/04 21:06:14;;;;;;;0.00;0.00;;;;;;;16.58;100.00;100179.25;5017193;28;20110;-68
2021/08/04 21:08:40;;;;;;;0.00;0.00;;;;;;;16.65;100.00;100180.78;5032310;28;20483;-65
2021/08/04 21:11:06;;;;;;;0.17;0.00;;;;;;;16.59;100.00;100154.25;5050050;28;20093;-69
2021/08/04 21:13:34;;;;;;;0.00;0.00;;;;;;;16.69;100.00;100181.56;5029632;28;20055;-66
2021/08/04 21:16:00;;;;;;;0.00;0.00;;;;;;;16.68;100.00;100179.78;5031279;28;20052;-71
2021/08/04 21:18:26;;;;;;;0.00;0.00;;;;;;;16.80;100.00;100174.84;5051254;28;20044;-69
2021/08/04 21:20:52;;;;;;;0.00;0.00;;;;;;;16.65;100.00;100159.34;5037490;28;20044;-69
2021/08/04 21:23:17;;;;;;;0.00;0.00;;;;;;;16.81;100.00;100181.06;5050256;28;20068;-68
2021/08/04 21:25:44;;;;;;;0.00;0.00;;;;;;;16.82;100.00;100182.81;5049058;28;20350;-66
2021/08/04 21:28:10;;;;;;;0.00;0.00;;;;;;;16.85;100.00;100194.28;5022926;28;20051;-65
2021/08/04 21:30:37;;;;;;;0.00;0.00;;;;;;;16.72;100.00;100194.78;5029751;28;20123;-66
2021/08/04 21:33:03;;;;;;;0.00;0.00;;;;;;;16.69;100.00;100179.72;5031916;28;20047;-65
2021/08/04 21:35:28;;;;;;;0.00;0.00;;;;;;;16.65;100.00;100166.50;5032806;28;20083;-65
2021/08/04 21:37:54;;;;;;;0.00;0.00;;;;;;;16.75;100.00;100184.88;5049432;28;20131;-64
2021/08/04 21:40:23;;;;;;;0.00;0.00;;;;;;;16.80;100.00;100184.66;5032149;28;20056;-64
2021/08/04 21:42:51;;;;;;;0.00;0.00;;;;;;;16.78;100.00;100186.53;5032751;28;20101;-66
2021/08/04 21:45:21;;;;;;;0.00;0.00;;;;;;;16.76;100.00;100181.25;5032721;28;20045;-64
2021/08/04 21:47:50;;;;;;;0.10;0.00;;;;;;;16.81;100.00;100191.78;5041907;28;20083;-66
2021/08/04 21:50:20;;;;;;;0.00;0.00;;;;;;;16.77;100.00;100177.63;5032319;28;20052;-74
2021/08/04 21:52:46;;;;;;;0.00;0.00;;;;;;;16.72;100.00;100176.06;5017983;28;20067;-66
2021/08/04 21:55:13;;;;;;;0.00;0.00;;;;;;;16.78;100.00;100191.91;5049525;28;20511;-75
2021/08/04 21:57:52;;;;;;;0.00;0.00;;;;;;;16.75;100.00;100197.38;5028422;28;20504;-76
2021/08/04 22:00:24;;;;;;;0.00;0.00;;;;;;;16.53;100.00;100197.31;5032885;28;20037;-66
2021/08/04 22:02:51;;;;;;;0.00;0.00;;;;;;;16.42;100.00;100187.94;5050492;28;20480;-68
2021/08/04 22:05:17;;;;;;;0.00;0.00;;;;;;;16.31;100.00;100176.72;5035908;28;20509;-70
2021/08/04 22:07:48;;;;;;;0.00;0.00;;;;;;;16.40;100.00;100193.31;5029165;28;20045;-67
2021/08/04 22:10:18;;;;;;;0.00;0.00;;;;;;;16.42;100.00;100198.63;5042852;28;20119;-69
2021/08/04 22:12:45;;;;;;;0.00;0.00;;;;;;;16.38;100.00;100197.81;5047300;28;20067;-71
2021/08/04 22:15:12;;;;;;;0.00;0.00;;;;;;;16.47;100.00;100199.34;5036118;28;20515;-71
2021/08/04 22:17:38;;;;;;;0.20;0.00;;;;;;;16.49;100.00;100202.81;5051126;28;20045;-63
2021/08/04 22:20:05;;;;;;;0.00;0.00;;;;;;;16.44;100.00;100194.09;5055227;28;20483;-69
2021/08/04 22:22:31;;;;;;;0.00;0.00;;;;;;;16.51;100.00;100196.50;5052942;28;20050;-63
2021/08/04 22:24:57;;;;;;;0.00;0.00;;;;;;;16.53;100.00;100196.41;5052915;28;20044;-67
2021/08/04 22:27:24;;;;;;;0.00;0.00;;;;;;;16.42;100.00;100195.97;5052605;28;20074;-64
2021/08/04 22:29:50;;;;;;;0.00;0.00;;;;;;;16.38;100.00;100199.66;5045422;28;20044;-67
2021/08/04 22:32:16;;;;;;;0.00;0.00;;;;;;;16.28;100.00;100193.75;5046265;28;20040;-62
2021/08/04 22:34:41;;;;;;;0.00;0.00;;;;;;;16.18;100.00;100197.66;5048291;28;20046;-62
2021/08/04 22:37:08;;;;;;;0.00;0.00;;;;;;;16.26;100.00;100198.28;5067510;28;20043;-63
2021/08/04 22:39:33;;;;;;;0.08;0.00;;;;;;;16.11;100.00;100182.78;5040388;28;20127;-67
2021/08/04 22:41:59;;;;;;;0.00;0.00;;;;;;;16.19;100.00;100199.44;5049564;28;20041;-63
2021/08/04 22:44:25;;;;;;;0.00;0.00;;;;;;;16.26;100.00;100205.44;5059521;28;20045;-64
2021/08/04 22:46:51;;;;;;;0.00;0.00;;;;;;;16.21;100.00;100207.38;5048961;28;21428;-70
2021/08/04 22:49:17;;;;;;;0.00;0.00;;;;;;;15.94;100.00;100205.72;5043547;28;20162;-64
2021/08/04 22:51:42;;;;;;;0.00;0.00;;;;;;;15.92;100.00;100188.81;5061475;28;20052;-67
2021/08/04 22:54:08;;;;;;;0.10;0.00;;;;;;;15.83;100.00;100190.00;5046610;28;20535;-62
2021/08/04 22:56:34;;;;;;;0.10;0.00;;;;;;;15.91;100.00;100211.16;5065617;28;20041;-69
2021/08/04 22:59:01;;;;;;;0.00;0.00;;;;;;;15.84;100.00;100201.59;5063313;28;20182;-62
2021/08/04 23:01:28;;;;;;;0.00;0.00;;;;;;;16.08;100.00;100219.47;5029305;28;20044;-64
2021/08/04 23:03:53;;;;;;;0.00;0.00;;;;;;;16.07;100.00;100215.94;5064697;28;20534;-62
2021/08/04 23:06:19;;;;;;;0.00;0.00;;;;;;;16.09;100.00;100219.41;5058103;28;20056;-60
2021/08/04 23:08:45;;;;;;;0.10;0.00;;;;;;;16.03;100.00;100206.28;5042676;28;20133;-62
2021/08/04 23:11:11;;;;;;;0.00;0.00;;;;;;;16.00;100.00;100216.19;5042886;28;20045;-63
2021/08/04 23:13:37;;;;;;;0.00;0.00;;;;;;;15.97;100.00;100217.16;5043127;28;20049;-63
2021/08/04 23:16:04;;;;;;;0.00;0.00;;;;;;;16.02;100.00;100217.03;5041679;28;20057;-64
2021/08/04 23:18:29;;;;;;;0.00;0.00;;;;;;;16.12;100.00;100215.75;5043908;28;20048;-62
2021/08/04 23:20:55;;;;;;;0.00;0.00;;;;;;;16.12;100.00;100211.28;5045346;28;20045;-62
2021/08/04 23:23:22;;;;;;;0.00;0.00;;;;;;;16.14;100.00;100209.41;5034346;28;20053;-63
2021/08/04 23:25:48;;;;;;;0.00;0.00;;;;;;;16.14;100.00;100214.75;5043495;28;20048;-61
2021/08/04 23:28:14;;;;;;;0.05;0.00;;;;;;;16.20;100.00;100214.56;5038680;28;20123;-62
2021/08/04 23:30:40;;;;;;;0.20;0.00;;;;;;;16.20;100.00;100217.25;5041037;28;20175;-63
2021/08/04 23:33:06;;;;;;;0.00;0.00;;;;;;;16.20;100.00;100225.25;5036909;28;20417;-65
2021/08/04 23:35:31;;;;;;;0.00;0.00;;;;;;;16.23;100.00;100225.16;5039253;28;20721;-61
2021/08/04 23:37:58;;;;;;;0.00;0.00;;;;;;;16.16;100.00;100223.63;5038908;28;20134;-62
2021/08/04 23:40:24;;;;;;;0.00;0.00;;;;;;;16.15;100.00;100223.69;5041597;28;20087;-64
2021/08/04 23:42:49;;;;;;;0.00;0.00;;;;;;;16.18;100.00;100219.06;5036361;28;20041;-60
2021/08/04 23:45:15;;;;;;;0.00;0.00;;;;;;;16.05;100.00;100224.91;5035802;28;20071;-60
2021/08/04 23:47:41;;;;;;;0.00;0.00;;;;;;;16.06;100.00;100226.69;5041666;28;20053;-60
2021/08/04 23:50:08;;;;;;;0.00;0.00;;;;;;;16.08;100.00;100220.34;5029464;28;20156;-60
2021/08/04 23:52:34;;;;;;;0.00;0.00;;;;;;;16.07;100.00;100226.63;5034978;28;20129;-63
2021/08/04 23:55:04;;;;;;;0.00;0.00;;;;;;;15.87;100.00;100237.13;5019126;28;20053;-62
2021/08/04 23:57:31;;;;;;;0.00;0.00;;;;;;;15.85;100.00;100235.41;5030962;28;20562;-69
2021/08/04 23:59:57;;;;;;;0.00;0.00;;;;;;;15.81;100.00;100223.97;5038107;28;20445;-63
